createdAt,value
2022-08-11T00:00:43.411Z,42.30
2022-08-11T00:01:53.798Z,42.49
2022-08-11T00:02:56.090Z,42.47
2022-08-11T00:04:02.470Z,42.54
2022-08-11T00:05:24.301Z,42.03
2022-08-11T00:06:27.324Z,42.36
2022-08-11T00:07:29.940Z,42.52
2022-08-11T00:08:32.446Z,42.42
2022-08-11T00:09:39.062Z,42.45
2022-08-11T00:10:41.927Z,42.26
2022-08-11T00:11:50.766Z,42.50
2022-08-11T00:12:56.342Z,42.84
2022-08-11T00:13:58.460Z,43.11
2022-08-11T00:15:01.467Z,42.99
2022-08-11T00:16:11.077Z,43.07
2022-08-11T00:17:15.908Z,43.14
2022-08-11T00:18:18.139Z,43.19
2022-08-11T00:20:12.232Z,42.89
2022-08-11T00:20:45.813Z,43.17
2022-08-11T00:22:04.574Z,43.14
2022-08-11T00:23:10.506Z,43.21
2022-08-11T00:24:12.619Z,43.59
2022-08-11T00:25:20.392Z,42.75
2022-08-11T00:26:23.245Z,43.41
2022-08-11T00:27:36.283Z,42.89
2022-08-11T00:28:38.039Z,43.54
2022-08-11T00:29:51.740Z,43.70
2022-08-11T00:30:54.928Z,43.69
2022-08-11T00:31:58.441Z,43.74
2022-08-11T00:33:00.189Z,43.98
2022-08-11T00:34:03.825Z,43.92
2022-08-11T00:35:56.344Z,43.89
2022-08-11T00:36:42.780Z,43.66
2022-08-11T00:37:50.024Z,43.93
2022-08-11T00:38:53.686Z,44.09
2022-08-11T00:39:57.881Z,43.81
2022-08-11T00:41:04.574Z,44.14
2022-08-11T00:42:25.051Z,44.24
2022-08-11T00:43:56.357Z,44.50
2022-08-11T00:45:18.384Z,44.69
2022-08-11T00:46:35.264Z,43.93
2022-08-11T00:47:51.746Z,43.87
2022-08-11T00:49:13.926Z,44.53
2022-08-11T00:50:35.178Z,44.40
2022-08-11T00:52:10.231Z,44.22
2022-08-11T00:53:40.839Z,43.98
2022-08-11T00:55:03.875Z,44.27
2022-08-11T00:56:24.471Z,44.41
2022-08-11T00:58:12.774Z,44.57
2022-08-11T00:59:36.066Z,44.51
2022-08-11T01:01:16.411Z,44.09
2022-08-11T01:02:29.132Z,44.25
2022-08-11T01:03:53.719Z,44.24
2022-08-11T01:05:10.134Z,44.66
2022-08-11T01:06:49.083Z,44.70
2022-08-11T01:08:18.616Z,45.07
2022-08-11T01:09:38.618Z,44.46
2022-08-11T01:11:11.081Z,44.71
2022-08-11T01:12:26.448Z,44.55
2022-08-11T01:13:46.464Z,44.65
2022-08-11T01:15:15.654Z,45.33
2022-08-11T01:16:36.059Z,45.06
2022-08-11T01:18:05.471Z,45.31
2022-08-11T01:19:25.737Z,45.80
2022-08-11T01:20:49.413Z,45.75
2022-08-11T01:21:54.221Z,45.84
2022-08-11T01:23:17.747Z,45.90
2022-08-11T01:24:57.671Z,46.07
2022-08-11T01:26:17.621Z,45.99
2022-08-11T01:27:48.296Z,45.79
2022-08-11T01:29:18.535Z,45.99
2022-08-11T01:30:54.365Z,46.77
2022-08-11T01:31:58.871Z,47.01
2022-08-11T01:33:21.864Z,47.18
2022-08-11T01:34:44.945Z,46.77
2022-08-11T01:36:17.487Z,47.10
2022-08-11T01:37:48.511Z,47.26
2022-08-11T01:39:18.495Z,46.89
2022-08-11T01:40:38.225Z,47.15
2022-08-11T01:41:42.403Z,47.19
2022-08-11T01:43:21.508Z,46.82
2022-08-11T01:44:52.153Z,46.86
2022-08-11T01:46:28.005Z,47.04
2022-08-11T01:47:38.011Z,47.10
2022-08-11T01:50:05.917Z,47.03
2022-08-11T01:50:54.104Z,47.11
2022-08-11T01:52:34.593Z,46.96
2022-08-11T01:53:42.734Z,47.30
2022-08-11T01:55:20.178Z,47.81
2022-08-11T01:56:28.403Z,47.92
2022-08-11T01:57:35.817Z,47.63
2022-08-11T01:58:43.517Z,48.31
2022-08-11T01:59:51.904Z,48.19
2022-08-11T02:01:14.860Z,47.75
2022-08-11T02:02:37.739Z,47.93
2022-08-11T02:03:49.168Z,47.53
2022-08-11T02:05:01.121Z,47.71
2022-08-11T02:06:11.963Z,47.76
2022-08-11T02:07:30.182Z,48.21
2022-08-11T02:08:58.869Z,47.89
2022-08-11T02:10:29.617Z,48.42
2022-08-11T02:11:38.919Z,48.14
2022-08-11T02:13:00.744Z,48.45
2022-08-11T02:14:14.961Z,47.91
2022-08-11T02:15:34.536Z,48.23
2022-08-11T02:16:59.801Z,48.31
2022-08-11T02:18:13.718Z,47.94
2022-08-11T02:19:18.483Z,48.70
2022-08-11T02:20:26.386Z,48.94
2022-08-11T02:21:38.635Z,48.67
2022-08-11T02:23:01.967Z,48.88
2022-08-11T02:24:11.532Z,49.01
2022-08-11T02:25:35.957Z,49.13
2022-08-11T02:26:46.215Z,48.82
2022-08-11T02:28:19.404Z,48.60
2022-08-11T02:29:43.603Z,48.74
2022-08-11T02:32:23.895Z,48.68
2022-08-11T02:33:08.488Z,48.40
2022-08-11T02:34:59.256Z,49.10
2022-08-11T02:36:10.538Z,49.18
2022-08-11T02:37:22.036Z,49.31
2022-08-11T02:38:32.462Z,49.11
2022-08-11T02:39:55.597Z,49.52
2022-08-11T02:41:16.344Z,49.25
2022-08-11T02:42:36.210Z,49.17
2022-08-11T02:44:02.730Z,49.20
2022-08-11T02:45:19.407Z,49.19
2022-08-11T02:46:32.690Z,49.35
2022-08-11T02:48:01.147Z,48.85
2022-08-11T02:49:02.589Z,49.08
2022-08-11T02:50:23.442Z,49.72
2022-08-11T02:52:09.770Z,49.66
2022-08-11T02:53:26.109Z,49.77
2022-08-11T02:54:44.529Z,49.81
2022-08-11T02:56:12.686Z,49.73
2022-08-11T02:57:51.561Z,50.03
2022-08-11T02:59:07.465Z,50.48
2022-08-11T03:00:11.309Z,50.48
2022-08-11T03:01:24.194Z,50.42
2022-08-11T03:02:28.790Z,50.36
2022-08-11T03:03:37.138Z,50.28
2022-08-11T03:05:25.028Z,50.63
2022-08-11T03:06:32.063Z,50.90
2022-08-11T03:07:47.943Z,50.74
2022-08-11T03:09:13.826Z,50.99
2022-08-11T03:10:24.012Z,50.94
2022-08-11T03:11:34.666Z,51.46
2022-08-11T03:13:04.094Z,50.88
2022-08-11T03:14:14.496Z,51.45
2022-08-11T03:15:22.460Z,51.14
2022-08-11T03:16:50.425Z,51.55
2022-08-11T03:18:13.487Z,51.25
2022-08-11T03:19:45.854Z,51.22
2022-08-11T03:20:59.517Z,51.33
2022-08-11T03:22:19.216Z,51.12
2022-08-11T03:23:49.523Z,51.34
2022-08-11T03:25:03.459Z,50.88
2022-08-11T03:26:22.205Z,51.34
2022-08-11T03:27:37.422Z,51.06
2022-08-11T03:28:59.688Z,51.13
2022-08-11T03:30:13.397Z,51.16
2022-08-11T03:31:27.314Z,51.16
2022-08-11T03:32:37.878Z,51.22
2022-08-11T03:33:46.987Z,51.07
2022-08-11T03:34:50.862Z,51.54
2022-08-11T03:36:15.459Z,52.08
2022-08-11T03:37:38.812Z,51.88
2022-08-11T03:39:03.425Z,51.65
2022-08-11T03:40:23.750Z,51.64
2022-08-11T03:42:06.043Z,52.19
2022-08-11T03:43:58.572Z,52.05
2022-08-11T03:45:19.213Z,52.08
2022-08-11T03:46:41.399Z,52.12
2022-08-11T03:47:54.989Z,52.46
2022-08-11T03:49:23.431Z,52.55
2022-08-11T03:50:55.675Z,52.43
2022-08-11T03:52:15.842Z,52.40
2022-08-11T03:53:23.116Z,52.24
2022-08-11T03:54:45.655Z,52.18
2022-08-11T03:56:02.249Z,52.52
2022-08-11T03:57:40.685Z,52.37
2022-08-11T03:59:24.653Z,52.61
2022-08-11T04:00:29.040Z,52.89
2022-08-11T04:01:36.350Z,52.94
2022-08-11T04:03:15.236Z,52.79
2022-08-11T04:04:51.195Z,52.74
2022-08-11T04:06:27.187Z,52.65
2022-08-11T04:07:57.441Z,52.95
2022-08-11T04:09:43.800Z,53.11
2022-08-11T04:11:19.636Z,53.06
2022-08-11T04:12:52.903Z,52.71
2022-08-11T04:14:22.642Z,52.76
2022-08-11T04:15:24.245Z,52.66
2022-08-11T04:16:47.342Z,52.64
2022-08-11T04:18:00.849Z,52.94
2022-08-11T04:19:20.887Z,53.18
2022-08-11T04:20:51.630Z,53.14
2022-08-11T04:22:16.805Z,53.46
2022-08-11T04:24:36.061Z,53.18
2022-08-11T04:25:14.835Z,53.17
2022-08-11T04:26:35.131Z,53.65
2022-08-11T04:27:59.022Z,53.61
2022-08-11T04:29:09.528Z,54.20
2022-08-11T04:30:39.332Z,53.45
2022-08-11T04:31:51.525Z,53.47
2022-08-11T04:33:11.483Z,53.49
2022-08-11T04:34:18.900Z,53.66
2022-08-11T04:35:23.281Z,53.22
2022-08-11T04:36:52.813Z,53.37
2022-08-11T04:38:31.527Z,53.23
2022-08-11T04:39:46.847Z,53.35
2022-08-11T04:41:07.079Z,53.51
2022-08-11T04:42:46.074Z,53.54
2022-08-11T04:44:12.228Z,53.74
2022-08-11T04:45:28.719Z,53.18
2022-08-11T04:46:56.048Z,53.40
2022-08-11T04:48:28.030Z,53.22
2022-08-11T04:50:14.707Z,53.01
2022-08-11T04:51:44.155Z,53.44
2022-08-11T04:52:57.833Z,52.95
2022-08-11T04:54:17.330Z,53.08
2022-08-11T04:55:37.763Z,53.01
2022-08-11T04:56:43.555Z,53.17
2022-08-11T04:58:04.252Z,52.69
2022-08-11T04:59:22.538Z,52.60
2022-08-11T05:00:30.688Z,52.24
2022-08-11T05:01:37.552Z,51.87
2022-08-11T05:02:57.567Z,51.20
2022-08-11T05:04:36.324Z,50.12
2022-08-11T05:05:56.572Z,48.86
2022-08-11T05:07:24.995Z,47.22
2022-08-11T05:09:04.097Z,46.05
2022-08-11T05:10:56.103Z,45.25
2022-08-11T05:12:16.560Z,44.67
2022-08-11T05:13:28.442Z,44.73
2022-08-11T05:14:34.778Z,44.21
2022-08-11T05:15:51.502Z,44.01
2022-08-11T05:16:56.760Z,43.86
2022-08-11T05:18:07.385Z,44.06
2022-08-11T05:19:17.360Z,43.32
2022-08-11T05:20:21.405Z,42.23
2022-08-11T05:21:25.243Z,42.20
2022-08-11T05:22:30.104Z,41.71
2022-08-11T05:23:34.182Z,41.43
2022-08-11T05:24:43.203Z,41.36
2022-08-11T05:26:45.211Z,41.46
2022-08-11T05:27:13.998Z,40.93
2022-08-11T05:28:40.958Z,40.54
2022-08-11T05:29:47.203Z,39.60
2022-08-11T05:30:50.520Z,38.69
2022-08-11T05:31:59.593Z,37.81
2022-08-11T05:33:07.730Z,36.50
2022-08-11T05:34:47.254Z,34.84
2022-08-11T05:36:01.403Z,33.21
2022-08-11T05:37:25.570Z,32.12
2022-08-11T05:38:32.342Z,30.71
2022-08-11T05:39:44.213Z,30.68
2022-08-11T05:40:51.255Z,30.89
2022-08-11T05:41:59.294Z,31.32
2022-08-11T05:43:11.824Z,31.56
2022-08-11T05:44:21.566Z,32.17
2022-08-11T05:45:25.510Z,32.99
2022-08-11T05:46:28.468Z,34.07
2022-08-11T05:47:30.670Z,34.81
2022-08-11T05:48:36.747Z,35.54
2022-08-11T05:49:39.052Z,36.02
2022-08-11T05:50:41.498Z,36.58
2022-08-11T05:51:54.699Z,36.31
2022-08-11T05:52:57.513Z,36.91
2022-08-11T05:54:00.852Z,38.07
2022-08-11T05:55:07.200Z,38.90
2022-08-11T05:56:09.407Z,38.94
2022-08-11T05:57:39.708Z,39.82
2022-08-11T05:58:46.085Z,40.11
2022-08-11T05:59:48.566Z,40.73
2022-08-11T06:00:50.950Z,41.02
2022-08-11T06:01:53.204Z,41.59
2022-08-11T06:02:58.207Z,41.95
2022-08-11T06:04:08.970Z,42.08
2022-08-11T06:05:12.286Z,42.09
2022-08-11T06:06:13.827Z,42.39
2022-08-11T06:07:15.518Z,41.50
2022-08-11T06:08:17.552Z,41.47
2022-08-11T06:09:46.948Z,40.57
2022-08-11T06:10:49.006Z,40.76
2022-08-11T06:11:51.174Z,39.45
2022-08-11T06:12:53.881Z,39.21
2022-08-11T06:13:56.931Z,38.66
2022-08-11T06:15:03.074Z,39.54
2022-08-11T06:16:07.180Z,39.89
2022-08-11T06:17:09.300Z,40.08
2022-08-11T06:18:13.012Z,40.28
2022-08-11T06:19:15.171Z,40.56
2022-08-11T06:20:19.085Z,40.33
2022-08-11T06:21:22.110Z,40.25
2022-08-11T06:22:24.098Z,40.02
2022-08-11T06:23:32.691Z,40.61
2022-08-11T06:24:37.539Z,40.66
2022-08-11T06:25:39.421Z,40.45
2022-08-11T06:27:09.102Z,40.58
2022-08-11T06:28:09.301Z,40.83
2022-08-11T06:29:11.675Z,40.43
2022-08-11T06:30:13.611Z,38.84
2022-08-11T06:31:22.901Z,37.63
2022-08-11T06:32:27.691Z,36.41
2022-08-11T06:33:38.775Z,35.25
2022-08-11T06:35:04.865Z,33.98
2022-08-11T06:36:27.099Z,32.14
2022-08-11T06:37:46.566Z,30.29
2022-08-11T06:39:22.603Z,28.56
2022-08-11T06:40:47.367Z,27.02
2022-08-11T06:42:03.357Z,27.03
2022-08-11T06:43:21.158Z,27.04
2022-08-11T06:45:02.779Z,25.91
2022-08-11T06:46:09.976Z,24.32
2022-08-11T06:47:15.115Z,24.07
2022-08-11T06:48:19.815Z,23.52
2022-08-11T06:49:24.063Z,22.79
2022-08-11T06:50:25.859Z,22.30
2022-08-11T06:51:28.231Z,22.52
2022-08-11T06:52:36.643Z,21.71
2022-08-11T06:53:39.730Z,21.60
2022-08-11T06:54:49.920Z,21.11
2022-08-11T06:55:58.097Z,21.14
2022-08-11T06:57:28.214Z,21.32
2022-08-11T06:58:28.230Z,21.23
2022-08-11T06:59:29.967Z,21.14
2022-08-11T07:00:34.095Z,21.57
2022-08-11T07:01:47.898Z,22.36
2022-08-11T07:03:00.372Z,21.88
2022-08-11T07:04:08.782Z,22.08
2022-08-11T07:05:24.597Z,21.98
2022-08-11T07:07:07.607Z,20.76
2022-08-11T07:08:34.419Z,20.32
2022-08-11T07:10:01.735Z,20.26
2022-08-11T07:11:45.363Z,19.65
2022-08-11T07:12:53.871Z,19.46
2022-08-11T07:13:59.308Z,19.65
2022-08-11T07:15:06.155Z,19.77
2022-08-11T07:16:12.297Z,19.80
2022-08-11T07:17:19.786Z,19.97
2022-08-11T07:18:25.828Z,19.78
2022-08-11T07:19:30.202Z,19.47
2022-08-11T07:20:31.893Z,19.37
2022-08-11T07:21:43.030Z,18.92
2022-08-11T07:23:03.016Z,19.73
2022-08-11T07:24:13.727Z,20.12
2022-08-11T07:25:16.475Z,19.45
2022-08-11T07:26:21.756Z,19.26
2022-08-11T07:27:31.196Z,19.27
2022-08-11T07:28:39.883Z,19.73
2022-08-11T07:29:44.928Z,19.67
2022-08-11T07:30:48.164Z,19.64
2022-08-11T07:31:54.359Z,20.39
2022-08-11T07:32:59.591Z,21.17
2022-08-11T07:34:19.575Z,22.71
2022-08-11T07:35:31.637Z,22.54
2022-08-11T07:36:33.955Z,24.02
2022-08-11T07:37:36.265Z,23.94
2022-08-11T07:38:48.709Z,24.94
2022-08-11T07:39:52.365Z,26.60
2022-08-11T07:40:58.138Z,27.63
2022-08-11T07:42:06.592Z,28.53
2022-08-11T07:43:08.317Z,29.14
2022-08-11T07:44:10.903Z,29.57
2022-08-11T07:45:13.845Z,29.18
2022-08-11T07:46:16.813Z,29.94
2022-08-11T07:47:18.753Z,30.44
2022-08-11T07:48:20.978Z,31.13
2022-08-11T07:49:22.582Z,31.52
2022-08-11T07:50:24.592Z,31.15
2022-08-11T07:51:26.248Z,31.78
2022-08-11T07:52:33.185Z,31.81
2022-08-11T07:53:57.887Z,32.63
2022-08-11T07:55:03.051Z,32.62
2022-08-11T07:56:05.625Z,32.06
2022-08-11T07:57:59.511Z,32.78
2022-08-11T07:58:41.467Z,32.72
2022-08-11T07:59:59.879Z,33.04
2022-08-11T08:01:03.034Z,33.02
2022-08-11T08:02:12.584Z,33.60
2022-08-11T08:03:14.457Z,33.49
2022-08-11T08:04:18.412Z,33.29
2022-08-11T08:05:20.872Z,33.06
2022-08-11T08:06:36.211Z,33.10
2022-08-11T08:07:38.609Z,32.79
2022-08-11T08:08:42.067Z,32.95
2022-08-11T08:09:44.526Z,33.31
2022-08-11T08:10:46.257Z,33.42
2022-08-11T08:11:48.531Z,33.53
2022-08-11T08:12:50.340Z,33.51
2022-08-11T08:13:53.988Z,33.10
2022-08-11T08:14:57.452Z,33.57
2022-08-11T08:15:59.335Z,33.46
2022-08-11T08:17:01.275Z,33.44
2022-08-11T08:18:09.776Z,33.63
2022-08-11T08:19:27.593Z,33.70
2022-08-11T08:20:35.236Z,33.83
2022-08-11T08:21:39.020Z,33.76
2022-08-11T08:22:43.998Z,33.70
2022-08-11T08:23:53.793Z,33.92
2022-08-11T08:24:58.123Z,34.40
2022-08-11T08:26:13.581Z,34.34
2022-08-11T08:27:19.135Z,34.18
2022-08-11T08:28:21.698Z,33.91
2022-08-11T08:29:24.159Z,34.62
2022-08-11T08:30:27.179Z,34.54
2022-08-11T08:31:28.998Z,34.59
2022-08-11T08:32:31.631Z,34.51
2022-08-11T08:33:33.353Z,35.20
2022-08-11T08:34:37.439Z,34.50
2022-08-11T08:35:56.138Z,34.32
2022-08-11T08:36:58.375Z,34.22
2022-08-11T08:38:00.299Z,34.26
2022-08-11T08:39:02.005Z,33.97
2022-08-11T08:40:06.134Z,33.92
2022-08-11T08:41:08.898Z,34.11
2022-08-11T08:42:21.070Z,33.98
2022-08-11T08:43:24.153Z,34.17
2022-08-11T08:44:38.392Z,33.98
2022-08-11T08:45:43.543Z,33.19
2022-08-11T08:46:50.476Z,33.14
2022-08-11T08:47:58.564Z,33.38
2022-08-11T08:49:04.537Z,33.50
2022-08-11T08:50:16.212Z,33.37
2022-08-11T08:51:18.874Z,34.18
2022-08-11T08:52:29.541Z,34.21
2022-08-11T08:53:52.189Z,34.48
2022-08-11T08:54:58.125Z,34.56
2022-08-11T08:56:01.859Z,33.40
2022-08-11T08:57:09.095Z,32.36
2022-08-11T08:58:12.466Z,32.43
2022-08-11T08:59:15.511Z,32.18
2022-08-11T09:00:23.413Z,32.32
2022-08-11T09:01:29.380Z,32.46
2022-08-11T09:02:34.359Z,32.42
2022-08-11T09:04:07.323Z,32.61
2022-08-11T09:05:01.006Z,32.71
2022-08-11T09:06:02.682Z,32.45
2022-08-11T09:07:09.545Z,32.24
2022-08-11T09:08:18.272Z,32.19
2022-08-11T09:09:22.004Z,32.01
2022-08-11T09:10:25.086Z,31.97
2022-08-11T09:11:26.926Z,31.89
2022-08-11T09:12:38.606Z,31.98
2022-08-11T09:13:42.243Z,32.11
2022-08-11T09:14:48.745Z,31.92
2022-08-11T09:15:55.826Z,31.46
2022-08-11T09:16:57.959Z,31.69
2022-08-11T09:18:01.572Z,31.99
2022-08-11T09:19:04.077Z,31.93
2022-08-11T09:20:08.948Z,31.66
2022-08-11T09:21:15.478Z,31.61
2022-08-11T09:22:40.360Z,31.41
2022-08-11T09:25:09.087Z,31.54
2022-08-11T09:26:11.293Z,31.68
2022-08-11T09:27:13.988Z,31.04
2022-08-11T09:28:17.391Z,31.30
2022-08-11T09:29:19.276Z,31.46
2022-08-11T09:30:21.079Z,30.95
2022-08-11T09:31:22.844Z,30.52
2022-08-11T09:32:25.106Z,30.70
2022-08-11T09:33:28.792Z,30.23
2022-08-11T09:34:30.959Z,30.51
2022-08-11T09:35:36.249Z,30.45
2022-08-11T09:36:41.469Z,30.08
2022-08-11T09:37:54.484Z,30.14
2022-08-11T09:39:00.046Z,29.56
2022-08-11T09:40:02.703Z,29.84
2022-08-11T09:41:07.822Z,29.99
2022-08-11T09:42:16.612Z,29.95
2022-08-11T09:43:25.894Z,29.88
2022-08-11T09:44:28.242Z,29.78
2022-08-11T09:45:40.261Z,29.67
2022-08-11T09:46:42.199Z,30.03
2022-08-11T09:47:44.215Z,29.60
2022-08-11T09:48:47.183Z,29.64
2022-08-11T09:49:49.630Z,29.63
2022-08-11T09:50:56.009Z,29.23
2022-08-11T09:52:05.042Z,28.20
2022-08-11T09:53:37.688Z,28.49
2022-08-11T09:54:29.597Z,28.54
2022-08-11T09:55:31.436Z,29.24
2022-08-11T09:56:33.787Z,29.06
2022-08-11T09:57:35.350Z,28.90
2022-08-11T09:58:43.402Z,28.91
2022-08-11T09:59:45.831Z,29.21
2022-08-11T10:00:49.860Z,29.49
2022-08-11T10:01:57.026Z,29.27
2022-08-11T10:02:59.652Z,29.46
2022-08-11T10:04:07.568Z,29.81
2022-08-11T10:05:10.298Z,29.64
2022-08-11T10:06:12.340Z,28.79
2022-08-11T10:07:15.695Z,29.09
2022-08-11T10:08:18.688Z,29.06
2022-08-11T10:09:22.870Z,29.53
2022-08-11T10:10:27.293Z,28.95
2022-08-11T10:11:29.851Z,29.20
2022-08-11T10:12:37.314Z,28.91
2022-08-11T10:14:31.011Z,28.68
2022-08-11T10:15:09.526Z,29.12
2022-08-11T10:16:15.534Z,29.11
2022-08-11T10:17:21.747Z,28.41
2022-08-11T10:18:33.894Z,28.35
2022-08-11T10:19:38.717Z,28.52
2022-08-11T10:20:41.942Z,28.59
2022-08-11T10:21:47.344Z,28.79
2022-08-11T10:22:49.190Z,29.13
2022-08-11T10:24:01.253Z,29.20
2022-08-11T10:25:08.077Z,28.80
2022-08-11T10:26:09.806Z,28.62
2022-08-11T10:27:11.464Z,28.23
2022-08-11T10:28:29.042Z,28.20
2022-08-11T10:29:45.150Z,27.85
2022-08-11T10:30:52.742Z,28.12
2022-08-11T10:31:57.485Z,27.66
2022-08-11T10:33:02.780Z,27.95
2022-08-11T10:34:09.792Z,27.70
2022-08-11T10:35:15.931Z,27.93
2022-08-11T10:36:20.144Z,28.29
2022-08-11T10:37:24.311Z,28.13
2022-08-11T10:38:47.300Z,28.20
2022-08-11T10:39:49.947Z,28.48
2022-08-11T10:40:52.030Z,27.99
2022-08-11T10:42:03.568Z,28.45
2022-08-11T10:43:14.507Z,27.62
2022-08-11T10:44:53.433Z,27.90
2022-08-11T10:45:55.005Z,27.09
2022-08-11T10:46:56.506Z,27.06
2022-08-11T10:47:59.772Z,27.09
2022-08-11T10:49:02.008Z,27.43
2022-08-11T10:50:11.889Z,27.37
2022-08-11T10:51:14.488Z,26.69
2022-08-11T10:52:16.371Z,26.68
2022-08-11T10:53:18.940Z,26.77
2022-08-11T10:54:22.744Z,26.95
2022-08-11T10:55:25.826Z,26.93
2022-08-11T10:56:34.090Z,27.06
2022-08-11T10:57:35.936Z,26.67
2022-08-11T10:58:39.514Z,26.58
2022-08-11T10:59:42.151Z,26.64
2022-08-11T11:00:45.405Z,26.24
2022-08-11T11:01:47.210Z,26.30
2022-08-11T11:03:05.428Z,26.70
2022-08-11T11:04:16.670Z,26.39
2022-08-11T11:05:30.559Z,26.48
2022-08-11T11:06:56.420Z,25.99
2022-08-11T11:08:08.123Z,25.22
2022-08-11T11:09:34.194Z,25.76
2022-08-11T11:10:35.949Z,25.58
2022-08-11T11:11:42.691Z,26.29
2022-08-11T11:12:46.940Z,25.62
2022-08-11T11:13:55.011Z,25.66
2022-08-11T11:14:59.279Z,25.65
2022-08-11T11:16:01.150Z,26.11
2022-08-11T11:17:06.042Z,25.60
2022-08-11T11:18:11.354Z,25.81
2022-08-11T11:19:13.483Z,25.16
2022-08-11T11:20:36.241Z,25.25
2022-08-11T11:21:42.981Z,25.48
2022-08-11T11:22:45.891Z,25.25
2022-08-11T11:24:07.175Z,24.91
2022-08-11T11:25:17.489Z,25.23
2022-08-11T11:26:30.868Z,25.00
2022-08-11T11:27:55.182Z,24.80
2022-08-11T11:29:18.646Z,24.50
2022-08-11T11:30:21.448Z,24.81
2022-08-11T11:31:44.316Z,24.56
2022-08-11T11:33:16.007Z,24.91
2022-08-11T11:34:23.467Z,24.84
2022-08-11T11:35:41.519Z,24.64
2022-08-11T11:36:51.894Z,24.35
2022-08-11T11:38:04.089Z,24.05
2022-08-11T11:39:08.446Z,24.32
2022-08-11T11:40:16.135Z,23.88
2022-08-11T11:41:17.946Z,24.20
2022-08-11T11:42:20.755Z,24.35
2022-08-11T11:43:22.467Z,23.92
2022-08-11T11:44:25.288Z,24.10
2022-08-11T11:45:27.053Z,24.03
2022-08-11T11:46:31.143Z,23.79
2022-08-11T11:47:41.930Z,23.87
2022-08-11T11:48:43.930Z,23.52
2022-08-11T11:49:47.249Z,23.78
2022-08-11T11:50:49.303Z,24.15
2022-08-11T11:51:52.532Z,23.68
2022-08-11T11:52:55.216Z,23.80
2022-08-11T11:53:57.075Z,23.99
2022-08-11T11:55:00.011Z,23.73
2022-08-11T11:56:03.322Z,23.13
2022-08-11T11:57:05.495Z,24.23
2022-08-11T11:58:07.872Z,23.98
2022-08-11T11:59:12.276Z,24.40
2022-08-11T12:00:16.688Z,24.33
2022-08-11T12:01:19.305Z,23.54
2022-08-11T12:02:21.306Z,24.01
2022-08-11T12:03:24.463Z,23.79
2022-08-11T12:04:29.814Z,23.67
2022-08-11T12:05:34.469Z,24.07
2022-08-11T12:06:37.727Z,24.44
2022-08-11T12:07:41.111Z,23.60
2022-08-11T12:08:44.739Z,23.36
2022-08-11T12:09:47.451Z,23.38
2022-08-11T12:10:54.841Z,23.92
2022-08-11T12:11:56.551Z,23.69
2022-08-11T12:13:02.275Z,23.86
2022-08-11T12:14:10.359Z,23.71
2022-08-11T12:15:13.169Z,23.35
2022-08-11T12:16:34.483Z,23.39
2022-08-11T12:17:38.803Z,23.17
2022-08-11T12:18:42.700Z,23.27
2022-08-11T12:19:48.479Z,22.72
2022-08-11T12:20:50.760Z,22.66
2022-08-11T12:21:59.391Z,22.90
2022-08-11T12:23:02.812Z,22.97
2022-08-11T12:24:05.345Z,22.81
2022-08-11T12:25:07.556Z,22.75
2022-08-11T12:26:26.464Z,22.93
2022-08-11T12:27:30.673Z,22.32
2022-08-11T12:28:34.468Z,22.84
2022-08-11T12:29:41.186Z,22.40
2022-08-11T12:30:47.455Z,22.09
2022-08-11T12:31:51.261Z,22.13
2022-08-11T12:32:53.008Z,22.25
2022-08-11T12:34:00.881Z,21.93
2022-08-11T12:35:04.006Z,21.76
2022-08-11T12:36:06.130Z,22.03
2022-08-11T12:37:08.968Z,21.86
2022-08-11T12:38:12.834Z,22.01
2022-08-11T12:39:24.085Z,21.89
2022-08-11T12:41:11.203Z,21.61
2022-08-11T12:41:48.521Z,21.81
2022-08-11T12:42:50.814Z,21.82
2022-08-11T12:44:00.775Z,22.05
2022-08-11T12:45:05.578Z,21.93
2022-08-11T12:46:29.032Z,21.03
2022-08-11T12:47:32.408Z,20.96
2022-08-11T12:48:59.109Z,20.86
2022-08-11T12:49:59.636Z,20.78
2022-08-11T12:51:05.278Z,20.73
2022-08-11T12:52:13.417Z,20.60
2022-08-11T12:53:18.739Z,20.92
2022-08-11T12:54:34.331Z,20.94
2022-08-11T12:55:36.603Z,21.50
2022-08-11T12:56:47.833Z,21.65
2022-08-11T12:57:49.657Z,21.43
2022-08-11T12:58:52.870Z,21.51
2022-08-11T12:59:55.622Z,21.79
2022-08-11T13:00:57.737Z,21.59
2022-08-11T13:01:59.691Z,21.11
2022-08-11T13:03:03.411Z,21.30
2022-08-11T13:04:05.815Z,20.92
2022-08-11T13:05:11.750Z,21.45
2022-08-11T13:06:16.377Z,21.08
2022-08-11T13:07:18.487Z,21.49
2022-08-11T13:08:22.070Z,20.83
2022-08-11T13:09:23.782Z,20.56
2022-08-11T13:10:25.829Z,21.17
2022-08-11T13:11:57.059Z,21.15
2022-08-11T13:12:49.410Z,20.48
2022-08-11T13:13:57.468Z,20.63
2022-08-11T13:15:00.617Z,21.26
2022-08-11T13:16:05.371Z,20.92
2022-08-11T13:17:07.115Z,20.94
2022-08-11T13:18:11.723Z,20.66
2022-08-11T13:19:13.296Z,20.63
2022-08-11T13:20:22.311Z,20.93
2022-08-11T13:21:24.691Z,20.97
2022-08-11T13:22:27.584Z,20.45
2022-08-11T13:23:29.645Z,20.89
2022-08-11T13:24:32.123Z,20.50
2022-08-11T13:25:33.754Z,20.42
2022-08-11T13:26:47.709Z,20.51
2022-08-11T13:27:55.892Z,20.88
2022-08-11T13:29:01.881Z,20.40
2022-08-11T13:30:04.406Z,20.43
2022-08-11T13:31:06.473Z,20.76
2022-08-11T13:32:09.348Z,20.56
2022-08-11T13:33:11.949Z,20.50
2022-08-11T13:34:15.578Z,20.78
2022-08-11T13:35:18.365Z,20.10
2022-08-11T13:36:23.087Z,20.14
2022-08-11T13:38:27.456Z,20.34
2022-08-11T13:38:50.073Z,19.81
2022-08-11T13:39:52.017Z,19.47
2022-08-11T13:40:56.462Z,19.78
2022-08-11T13:41:59.841Z,19.41
2022-08-11T13:43:01.546Z,19.43
2022-08-11T13:44:04.301Z,19.57
2022-08-11T13:45:07.814Z,19.32
2022-08-11T13:46:09.514Z,19.27
2022-08-11T13:47:13.610Z,19.14
2022-08-11T13:48:16.896Z,19.13
2022-08-11T13:49:20.655Z,19.78
2022-08-11T13:50:24.091Z,19.26
2022-08-11T13:51:34.573Z,19.33
2022-08-11T13:52:38.364Z,19.49
2022-08-11T13:53:40.082Z,19.35
2022-08-11T13:54:42.885Z,18.59
2022-08-11T13:55:52.368Z,18.79
2022-08-11T13:57:01.168Z,18.92
2022-08-11T13:58:08.059Z,18.90
2022-08-11T13:59:23.864Z,18.90
2022-08-11T14:00:29.183Z,18.90
2022-08-11T14:02:04.467Z,18.79
2022-08-11T14:02:58.481Z,18.48
2022-08-11T14:04:30.706Z,18.22
2022-08-11T14:05:40.028Z,18.43
2022-08-11T14:06:53.890Z,18.50
2022-08-11T14:08:07.686Z,18.46
2022-08-11T14:09:10.611Z,18.53
2022-08-11T14:10:16.036Z,18.28
2022-08-11T14:12:20.278Z,18.48
2022-08-11T14:12:43.045Z,18.45
2022-08-11T14:13:48.217Z,17.59
2022-08-11T14:14:56.361Z,18.07
2022-08-11T14:16:03.776Z,18.24
2022-08-11T14:17:07.065Z,18.19
2022-08-11T14:18:18.836Z,17.74
2022-08-11T14:19:24.043Z,17.84
2022-08-11T14:20:38.501Z,17.95
2022-08-11T14:21:45.053Z,17.98
2022-08-11T14:22:49.540Z,18.12
2022-08-11T14:23:53.626Z,18.67
2022-08-11T14:24:57.271Z,18.13
2022-08-11T14:26:02.543Z,18.14
2022-08-11T14:27:06.483Z,18.31
2022-08-11T14:28:31.934Z,18.06
2022-08-11T14:29:30.528Z,18.20
2022-08-11T14:30:32.173Z,17.80
2022-08-11T14:31:37.849Z,17.92
2022-08-11T14:32:53.147Z,17.57
2022-08-11T14:34:02.191Z,17.71
2022-08-11T14:35:04.877Z,17.79
2022-08-11T14:36:10.231Z,18.18
2022-08-11T14:37:20.050Z,17.57
2022-08-11T14:38:21.835Z,17.46
2022-08-11T14:39:28.770Z,17.70
2022-08-11T14:40:31.695Z,17.67
2022-08-11T14:41:36.454Z,17.20
2022-08-11T14:42:38.652Z,17.27
2022-08-11T14:44:14.154Z,17.58
2022-08-11T14:45:06.171Z,17.53
2022-08-11T14:46:08.186Z,18.09
2022-08-11T14:47:24.350Z,18.04
2022-08-11T14:48:26.953Z,17.89
2022-08-11T14:49:29.597Z,18.35
2022-08-11T14:50:34.910Z,18.25
2022-08-11T14:51:37.004Z,18.51
2022-08-11T14:52:59.284Z,18.06
2022-08-11T14:54:01.141Z,18.23
2022-08-11T14:55:04.179Z,17.72
2022-08-11T14:56:06.648Z,17.69
2022-08-11T14:57:11.374Z,17.79
2022-08-11T14:58:21.559Z,17.89
2022-08-11T14:59:24.587Z,17.58
2022-08-11T15:00:26.791Z,17.80
2022-08-11T15:01:28.709Z,17.83
2022-08-11T15:02:30.803Z,17.74
2022-08-11T15:03:33.017Z,17.26
2022-08-11T15:04:36.807Z,17.41
2022-08-11T15:05:57.281Z,17.23
2022-08-11T15:07:00.141Z,17.48
2022-08-11T15:08:02.053Z,18.27
2022-08-11T15:09:08.855Z,17.85
2022-08-11T15:10:13.189Z,18.00
2022-08-11T15:11:17.791Z,18.03
2022-08-11T15:12:33.033Z,18.35
2022-08-11T15:13:36.460Z,18.46
2022-08-11T15:14:39.202Z,17.93
2022-08-11T15:15:43.007Z,18.11
2022-08-11T15:16:46.106Z,17.73
2022-08-11T15:17:48.087Z,17.64